Time;durP1;ratioP1;P1;durP2;ratioP2;P2;SDS_P1;SDS_P2;PMS_P1;PMS_P2;Temp;Humidity;BMP_temperature;BMP_pressure;BME280_temperature;BME280_humidity;BME280_pressure;Samples;Min_cycle;Max_cycle;Signal;HPM_P1;HPM_P2
2024/02/18 00:02:20;;;;;;;2.05;1.85;;;;;;;;;;5032667;28;20218;-93
2024/02/18 00:04:48;;;;;;;2.42;2.22;;;;;;;;;;5032500;28;20242;-92
2024/02/18 00:07:16;;;;;;;3.20;2.90;;;;;;;;;;5035003;28;20330;-92
2024/02/18 00:09:44;;;;;;;2.70;2.50;;;;;;;;;;5032456;28;20233;-93
2024/02/18 00:12:12;;;;;;;3.13;2.92;;;;;;;;;;5031666;28;20226;-92
2024/02/18 00:14:40;;;;;;;3.40;3.08;;;;;;;;;;5031889;28;20223;-93
2024/02/18 00:17:08;;;;;;;3.20;2.85;;;;;;;;;;5032506;28;20207;-93
2024/02/18 00:19:36;;;;;;;3.42;3.13;;;;;;;;;;5035726;28;20203;-93
2024/02/18 00:22:05;;;;;;;2.92;2.72;;;;;;;;;;5034515;28;20218;-93
2024/02/18 00:24:32;;;;;;;2.75;2.20;;;;;;;;;;5033099;28;20321;-92
2024/02/18 00:27:00;;;;;;;2.10;1.95;;;;;;;;;;5035415;28;20195;-93
2024/02/18 00:29:27;;;;;;;1.92;1.83;;;;;;;;;;5034680;28;20206;-93
2024/02/18 00:31:55;;;;;;;2.50;2.30;;;;;;;;;;5032887;28;20194;-93
2024/02/18 00:34:24;;;;;;;2.00;1.80;;;;;;;;;;5031538;28;20227;-92
2024/02/18 00:36:51;;;;;;;2.28;2.10;;;;;;;;;;5034869;28;20202;-92
2024/02/18 00:39:19;;;;;;;2.65;2.45;;;;;;;;;;5034464;28;20199;-93
2024/02/18 00:41:46;;;;;;;2.20;2.00;;;;;;;;;;5031571;28;20202;-91
2024/02/18 00:44:14;;;;;;;2.22;2.03;;;;;;;;;;5033555;28;20238;-94
2024/02/18 00:46:42;;;;;;;3.22;2.97;;;;;;;;;;5026846;28;20261;-93
2024/02/18 00:49:09;;;;;;;2.63;2.35;;;;;;;;;;5028960;28;20222;-91
2024/02/18 00:51:38;;;;;;;2.47;2.28;;;;;;;;;;5035582;28;20203;-93
2024/02/18 00:54:06;;;;;;;2.47;2.28;;;;;;;;;;5033391;28;20243;-92
2024/02/18 00:56:33;;;;;;;2.40;2.20;;;;;;;;;;5032237;28;20206;-93
2024/02/18 00:59:01;;;;;;;4.07;3.75;;;;;;;;;;5031954;28;20583;-92
2024/02/18 01:01:28;;;;;;;5.10;4.60;;;;;;;;;;5032199;28;20211;-93
2024/02/18 01:03:56;;;;;;;5.13;4.50;;;;;;;;;;5031769;28;20242;-93
2024/02/18 01:06:23;;;;;;;5.32;4.82;;;;;;;;;;5030705;28;20251;-92
2024/02/18 01:08:52;;;;;;;6.10;5.40;;;;;;;;;;5033808;28;20244;-91
2024/02/18 01:11:20;;;;;;;5.47;4.57;;;;;;;;;;5033748;28;20195;-93
2024/02/18 01:13:48;;;;;;;4.03;3.72;;;;;;;;;;5031996;28;20219;-92
2024/02/18 01:16:15;;;;;;;3.80;3.50;;;;;;;;;;5038954;28;20222;-92
2024/02/18 01:18:44;;;;;;;5.15;4.65;;;;;;;;;;5032955;28;20199;-92
2024/02/18 01:21:11;;;;;;;4.25;3.78;;;;;;;;;;5032152;28;20207;-93
2024/02/18 01:23:39;;;;;;;5.57;5.00;;;;;;;;;;5034096;28;20227;-92
2024/02/18 01:26:09;;;;;;;4.72;4.20;;;;;;;;;;5035157;28;20229;-92
2024/02/18 01:28:37;;;;;;;4.60;4.20;;;;;;;;;;5032354;28;20222;-92
2024/02/18 01:31:05;;;;;;;5.63;5.13;;;;;;;;;;5031109;28;20210;-93
2024/02/18 01:33:32;;;;;;;6.32;5.72;;;;;;;;;;5034599;28;20233;-93
2024/02/18 01:36:00;;;;;;;6.78;6.07;;;;;;;;;;5034547;28;20210;-92
2024/02/18 01:38:27;;;;;;;6.55;5.60;;;;;;;;;;5031410;28;20213;-92
2024/02/18 01:40:55;;;;;;;6.95;6.18;;;;;;;;;;5033556;28;20207;-92
2024/02/18 01:43:26;;;;;;;5.88;4.95;;;;;;;;;;5031111;28;20601;-93
2024/02/18 01:45:54;;;;;;;5.80;5.20;;;;;;;;;;5026729;28;20275;-93
2024/02/18 01:48:22;;;;;;;6.97;5.53;;;;;;;;;;5025428;28;20237;-92
2024/02/18 01:50:50;;;;;;;5.35;4.82;;;;;;;;;;5031863;28;20210;-92
2024/02/18 01:53:19;;;;;;;6.03;5.40;;;;;;;;;;5047522;22;20230;-87
2024/02/18 01:55:47;;;;;;;8.60;5.78;;;;;;;;;;5048197;28;20221;-87
2024/02/18 01:58:14;;;;;;;5.97;5.25;;;;;;;;;;5047903;28;20270;-87
2024/02/18 02:00:44;;;;;;;7.03;5.20;;;;;;;;;;5048892;28;20232;-87
2024/02/18 02:03:13;;;;;;;4.93;4.45;;;;;;;;;;5048949;28;20266;-87
2024/02/18 02:05:42;;;;;;;6.28;5.65;;;;;;;;;;5048732;28;20245;-87
2024/02/18 02:08:10;;;;;;;6.47;5.35;;;;;;;;;;5047236;28;20202;-87
2024/02/18 02:10:38;;;;;;;5.00;4.57;;;;;;;;;;5033878;28;20294;-89
2024/02/18 02:13:06;;;;;;;5.78;5.28;;;;;;;;;;5033479;28;20229;-88
2024/02/18 02:15:35;;;;;;;7.07;6.32;;;;;;;;;;5033170;28;20199;-88
2024/02/18 02:18:05;;;;;;;8.07;7.20;;;;;;;;;;5033236;28;20194;-87
2024/02/18 02:20:32;;;;;;;9.05;7.45;;;;;;;;;;5033398;28;20283;-87
2024/02/18 02:23:00;;;;;;;9.20;6.90;;;;;;;;;;5039662;28;20202;-87
2024/02/18 02:25:28;;;;;;;5.70;5.20;;;;;;;;;;5036352;28;20474;-87
2024/02/18 02:28:03;;;;;;;5.97;5.38;;;;;;;;;;5033281;28;20221;-87
2024/02/18 02:30:32;;;;;;;6.07;5.28;;;;;;;;;;5032986;28;20194;-88
2024/02/18 02:32:59;;;;;;;6.70;6.03;;;;;;;;;;5034385;28;20287;-87
2024/02/18 02:35:28;;;;;;;7.65;5.85;;;;;;;;;;5033579;28;20285;-87
2024/02/18 02:37:58;;;;;;;7.25;5.35;;;;;;;;;;5033092;28;20205;-87
2024/02/18 02:40:26;;;;;;;5.22;4.40;;;;;;;;;;5033288;28;20198;-87
2024/02/18 02:42:54;;;;;;;5.75;4.40;;;;;;;;;;5032652;28;20564;-88
2024/02/18 02:45:22;;;;;;;4.28;3.88;;;;;;;;;;5032240;28;20325;-86
2024/02/18 02:47:52;;;;;;;4.63;3.97;;;;;;;;;;5032914;28;20584;-89
2024/02/18 02:50:20;;;;;;;5.82;5.28;;;;;;;;;;5033170;28;20324;-89
2024/02/18 02:52:47;;;;;;;9.23;8.30;;;;;;;;;;5032634;28;20306;-89
2024/02/18 02:55:15;;;;;;;5.55;5.05;;;;;;;;;;5032599;28;20617;-87
2024/02/18 02:57:43;;;;;;;4.65;4.25;;;;;;;;;;5032619;28;20660;-90
2024/02/18 03:00:12;;;;;;;3.72;3.42;;;;;;;;;;5032124;28;20208;-88
2024/02/18 03:02:40;;;;;;;4.82;4.43;;;;;;;;;;5032434;28;20206;-89
2024/02/18 03:05:10;;;;;;;4.57;4.22;;;;;;;;;;5035733;28;20733;-89
2024/02/18 03:07:38;;;;;;;5.82;5.22;;;;;;;;;;5036857;28;20226;-89
2024/02/18 03:10:09;;;;;;;6.80;5.95;;;;;;;;;;5036646;28;20648;-88
2024/02/18 03:12:37;;;;;;;6.20;5.60;;;;;;;;;;5036231;28;20202;-89
2024/02/18 03:15:06;;;;;;;5.55;5.05;;;;;;;;;;5036480;28;20282;-89
2024/02/18 03:17:35;;;;;;;6.43;5.82;;;;;;;;;;5036781;28;20209;-89
2024/02/18 03:20:07;;;;;;;5.35;4.85;;;;;;;;;;5036558;28;20230;-89
2024/02/18 03:22:36;;;;;;;5.60;5.10;;;;;;;;;;5036408;28;20205;-89
2024/02/18 03:25:04;;;;;;;4.97;4.47;;;;;;;;;;5036240;28;20245;-88
2024/02/18 03:27:31;;;;;;;13.35;5.07;;;;;;;;;;5035876;28;20222;-88
2024/02/18 03:30:00;;;;;;;4.32;3.90;;;;;;;;;;5036412;28;20194;-89
2024/02/18 03:32:27;;;;;;;4.88;4.30;;;;;;;;;;5036243;28;20206;-88
2024/02/18 03:34:55;;;;;;;4.57;4.18;;;;;;;;;;5036259;28;20214;-88
2024/02/18 03:37:23;;;;;;;5.88;4.22;;;;;;;;;;5036264;28;20228;-88
2024/02/18 03:39:51;;;;;;;4.72;4.32;;;;;;;;;;5036207;28;20634;-89
2024/02/18 03:42:19;;;;;;;4.90;4.10;;;;;;;;;;5036391;28;20277;-89
2024/02/18 03:44:47;;;;;;;8.32;4.60;;;;;;;;;;5036056;28;20692;-89
2024/02/18 03:47:15;;;;;;;5.05;4.55;;;;;;;;;;5035961;28;20230;-88
2024/02/18 03:49:43;;;;;;;5.30;4.80;;;;;;;;;;5036006;28;20210;-89
2024/02/18 03:52:10;;;;;;;8.02;5.72;;;;;;;;;;5035492;28;20206;-89
2024/02/18 03:54:38;;;;;;;4.80;4.30;;;;;;;;;;5035608;28;20313;-88
2024/02/18 03:57:07;;;;;;;4.68;4.28;;;;;;;;;;5035763;28;20285;-89
2024/02/18 03:59:35;;;;;;;5.35;4.75;;;;;;;;;;5035839;28;20282;-89
2024/02/18 04:02:03;;;;;;;6.15;5.55;;;;;;;;;;5035467;28;20406;-88
2024/02/18 04:04:30;;;;;;;5.30;4.80;;;;;;;;;;5035675;28;20305;-88
2024/02/18 04:06:58;;;;;;;4.63;4.22;;;;;;;;;;5035454;28;20228;-88
2024/02/18 04:09:25;;;;;;;7.55;6.75;;;;;;;;;;5035592;28;20646;-88
2024/02/18 04:11:54;;;;;;;5.30;4.80;;;;;;;;;;5035340;28;20527;-88
2024/02/18 04:14:22;;;;;;;6.55;5.22;;;;;;;;;;5035345;28;20226;-88
2024/02/18 04:16:50;;;;;;;5.85;4.93;;;;;;;;;;5035289;28;20236;-88
2024/02/18 04:19:17;;;;;;;4.68;4.28;;;;;;;;;;5035454;28;20206;-89
2024/02/18 04:21:45;;;;;;;5.72;4.78;;;;;;;;;;5044940;28;20735;-89
2024/02/18 04:24:13;;;;;;;5.72;5.00;;;;;;;;;;5035117;28;20252;-88
2024/02/18 04:26:40;;;;;;;5.35;3.80;;;;;;;;;;5035442;28;20309;-89
2024/02/18 04:29:08;;;;;;;5.55;4.40;;;;;;;;;;5035302;28;20622;-89
2024/02/18 04:31:37;;;;;;;4.90;4.50;;;;;;;;;;5034996;28;20247;-88
2024/02/18 04:34:04;;;;;;;4.38;4.00;;;;;;;;;;5035101;28;20303;-88
2024/02/18 04:36:32;;;;;;;5.57;4.75;;;;;;;;;;5035149;28;20230;-89
2024/02/18 04:39:00;;;;;;;6.00;3.70;;;;;;;;;;5035260;28;20285;-88
2024/02/18 04:41:27;;;;;;;5.65;4.22;;;;;;;;;;5034746;28;20206;-89
2024/02/18 04:43:55;;;;;;;3.78;3.47;;;;;;;;;;5034584;28;20257;-88
2024/02/18 04:46:23;;;;;;;4.78;3.78;;;;;;;;;;5034235;28;20194;-89
2024/02/18 04:48:53;;;;;;;4.47;4.07;;;;;;;;;;5034893;28;20739;-88
2024/02/18 04:51:20;;;;;;;5.22;3.75;;;;;;;;;;5034956;28;20549;-88
2024/02/18 04:53:48;;;;;;;5.80;4.20;;;;;;;;;;5034618;28;20230;-88
2024/02/18 04:56:15;;;;;;;4.20;3.58;;;;;;;;;;5034720;28;20207;-89
2024/02/18 04:58:43;;;;;;;4.65;4.25;;;;;;;;;;5034918;28;20205;-89
2024/02/18 05:01:11;;;;;;;4.82;4.32;;;;;;;;;;5034350;28;20289;-88
2024/02/18 05:03:40;;;;;;;4.82;4.25;;;;;;;;;;5034640;28;20214;-88
2024/02/18 05:06:11;;;;;;;4.60;3.67;;;;;;;;;;5034576;28;20205;-88
2024/02/18 05:08:39;;;;;;;3.95;3.50;;;;;;;;;;5034250;28;20222;-88
2024/02/18 05:11:06;;;;;;;4.53;3.83;;;;;;;;;;5034231;28;20194;-88
2024/02/18 05:13:34;;;;;;;3.65;3.35;;;;;;;;;;5034437;28;20660;-89
2024/02/18 05:16:01;;;;;;;4.00;3.70;;;;;;;;;;5035823;28;20204;-88
2024/02/18 05:18:29;;;;;;;4.05;3.60;;;;;;;;;;5034431;28;20222;-88
2024/02/18 05:20:57;;;;;;;5.47;4.97;;;;;;;;;;5034160;28;20294;-89
2024/02/18 05:23:26;;;;;;;6.25;4.68;;;;;;;;;;5033825;28;20210;-88
2024/02/18 05:25:54;;;;;;;5.50;4.38;;;;;;;;;;5034228;28;20195;-88
2024/02/18 05:28:21;;;;;;;6.78;4.80;;;;;;;;;;5033162;28;20305;-89
2024/02/18 05:30:49;;;;;;;5.32;4.53;;;;;;;;;;5034016;28;20206;-89
2024/02/18 05:33:16;;;;;;;4.25;3.88;;;;;;;;;;5033769;28;20579;-88
2024/02/18 05:35:44;;;;;;;4.70;4.28;;;;;;;;;;5033974;28;20198;-88
2024/02/18 05:38:11;;;;;;;5.03;4.28;;;;;;;;;;5034091;28;20213;-89
2024/02/18 05:40:40;;;;;;;4.25;3.85;;;;;;;;;;5033823;28;20290;-88
2024/02/18 05:43:08;;;;;;;4.20;3.88;;;;;;;;;;5033809;28;20205;-88
2024/02/18 05:45:36;;;;;;;3.78;3.30;;;;;;;;;;5033687;28;20202;-88
2024/02/18 05:48:03;;;;;;;4.70;3.78;;;;;;;;;;5033229;28;20308;-89
2024/02/18 05:50:31;;;;;;;4.35;3.95;;;;;;;;;;5033318;28;20285;-88
2024/02/18 05:52:58;;;;;;;3.97;3.63;;;;;;;;;;5033155;28;20233;-88
2024/02/18 05:55:26;;;;;;;4.13;3.72;;;;;;;;;;5033545;28;20664;-89
2024/02/18 05:57:55;;;;;;;5.20;4.75;;;;;;;;;;5034015;28;20285;-89
2024/02/18 06:00:22;;;;;;;5.43;4.68;;;;;;;;;;5041595;28;20480;-89
2024/02/18 06:02:50;;;;;;;7.10;4.97;;;;;;;;;;5033063;28;20679;-89
2024/02/18 06:05:18;;;;;;;5.47;4.50;;;;;;;;;;5036288;28;20606;-88
2024/02/18 06:07:46;;;;;;;5.90;4.75;;;;;;;;;;5040005;28;20219;-89
2024/02/18 06:10:14;;;;;;;6.22;5.28;;;;;;;;;;5034657;28;20204;-88
2024/02/18 06:12:41;;;;;;;7.65;4.78;;;;;;;;;;5033162;28;20198;-90
2024/02/18 06:15:12;;;;;;;5.43;4.63;;;;;;;;;;5033412;28;20210;-88
2024/02/18 06:17:40;;;;;;;6.63;5.47;;;;;;;;;;5033357;28;20248;-90
2024/02/18 06:20:11;;;;;;;7.88;5.43;;;;;;;;;;5040060;28;20186;-89
2024/02/18 06:22:40;;;;;;;6.13;4.40;;;;;;;;;;5032921;28;20297;-88
2024/02/18 06:25:08;;;;;;;5.07;4.60;;;;;;;;;;5032982;28;20310;-88
2024/02/18 06:27:36;;;;;;;6.72;5.15;;;;;;;;;;5033013;28;20272;-88
2024/02/18 06:30:06;;;;;;;7.85;6.13;;;;;;;;;;5032994;28;20206;-88
2024/02/18 06:32:35;;;;;;;6.10;5.22;;;;;;;;;;5032673;28;20206;-89
2024/02/18 06:35:03;;;;;;;6.10;4.55;;;;;;;;;;5034412;28;20657;-88
2024/02/18 06:37:30;;;;;;;7.07;5.35;;;;;;;;;;5047522;28;20217;-88
2024/02/18 06:39:58;;;;;;;7.07;4.63;;;;;;;;;;5055435;28;20207;-88
2024/02/18 06:42:25;;;;;;;5.53;4.65;;;;;;;;;;5056725;28;20198;-88
2024/02/18 06:44:53;;;;;;;5.47;4.97;;;;;;;;;;5054440;28;20214;-88
2024/02/18 06:47:20;;;;;;;7.97;4.80;;;;;;;;;;5046207;28;20623;-88
2024/02/18 06:49:49;;;;;;;6.03;5.28;;;;;;;;;;5034099;28;20225;-88
2024/02/18 06:52:17;;;;;;;6.82;5.47;;;;;;;;;;5033465;28;20265;-88
2024/02/18 06:54:44;;;;;;;5.07;4.57;;;;;;;;;;5033176;28;20767;-89
2024/02/18 06:57:12;;;;;;;5.88;5.32;;;;;;;;;;5034195;28;20702;-88
2024/02/18 06:59:39;;;;;;;4.82;4.32;;;;;;;;;;5034979;28;20461;-88
2024/02/18 07:02:07;;;;;;;6.60;4.70;;;;;;;;;;5035273;28;20209;-88
2024/02/18 07:04:34;;;;;;;5.28;4.78;;;;;;;;;;5035498;28;20714;-89
2024/02/18 07:07:04;;;;;;;5.43;4.90;;;;;;;;;;5033443;28;20600;-88
2024/02/18 07:09:31;;;;;;;5.47;4.80;;;;;;;;;;5033245;28;20289;-88
2024/02/18 07:11:59;;;;;;;5.18;4.68;;;;;;;;;;5032695;28;20201;-88
2024/02/18 07:14:26;;;;;;;5.45;4.95;;;;;;;;;;5032400;28;20255;-88
2024/02/18 07:16:54;;;;;;;5.40;4.90;;;;;;;;;;5032217;28;20202;-88
2024/02/18 07:19:22;;;;;;;5.25;4.75;;;;;;;;;;5032742;28;20285;-89
2024/02/18 07:21:49;;;;;;;6.80;5.05;;;;;;;;;;5031911;28;20198;-89
2024/02/18 07:24:18;;;;;;;5.85;4.80;;;;;;;;;;5032022;28;20218;-88
2024/02/18 07:26:46;;;;;;;6.13;4.93;;;;;;;;;;5032037;28;20205;-88
2024/02/18 07:29:13;;;;;;;5.03;4.50;;;;;;;;;;5031801;28;20229;-89
2024/02/18 07:31:41;;;;;;;5.80;5.22;;;;;;;;;;5039719;28;20202;-88
2024/02/18 07:34:08;;;;;;;4.97;4.47;;;;;;;;;;5031877;28;20301;-89
2024/02/18 07:36:36;;;;;;;6.22;5.18;;;;;;;;;;5031745;28;20206;-88
2024/02/18 07:39:04;;;;;;;6.13;5.25;;;;;;;;;;5032344;28;20210;-89
2024/02/18 07:41:33;;;;;;;5.68;4.85;;;;;;;;;;5031558;28;20289;-89
2024/02/18 07:44:00;;;;;;;7.20;4.97;;;;;;;;;;5031515;28;20219;-89
2024/02/18 07:46:28;;;;;;;5.20;4.25;;;;;;;;;;5031796;28;20661;-89
2024/02/18 07:48:56;;;;;;;6.03;5.43;;;;;;;;;;5031867;28;20265;-89
2024/02/18 07:51:23;;;;;;;5.68;4.90;;;;;;;;;;5044307;28;20210;-88
2024/02/18 07:53:51;;;;;;;6.85;5.90;;;;;;;;;;5126849;22;20256;-93
2024/02/18 07:56:18;;;;;;;4.97;4.57;;;;;;;;;;5059289;28;20206;-93
2024/02/18 07:58:48;;;;;;;6.00;5.38;;;;;;;;;;5058835;28;20195;-93
2024/02/18 08:01:15;;;;;;;5.68;5.03;;;;;;;;;;5059324;28;20261;-94
2024/02/18 08:03:44;;;;;;;3.80;3.50;;;;;;;;;;5059093;28;20226;-93
2024/02/18 08:06:11;;;;;;;4.30;3.90;;;;;;;;;;5059580;28;20194;-93
2024/02/18 08:08:39;;;;;;;7.07;6.38;;;;;;;;;;5059501;28;20223;-93
2024/02/18 08:11:06;;;;;;;5.78;5.18;;;;;;;;;;5058812;28;20194;-93
2024/02/18 08:13:34;;;;;;;6.75;5.85;;;;;;;;;;5060423;28;20190;-92
2024/02/18 08:16:03;;;;;;;6.57;5.85;;;;;;;;;;5060439;28;20202;-93
2024/02/18 08:18:30;;;;;;;6.45;5.85;;;;;;;;;;5058719;28;20202;-93
2024/02/18 08:20:58;;;;;;;6.75;6.10;;;;;;;;;;5059089;28;20202;-93
2024/02/18 08:23:26;;;;;;;6.63;6.00;;;;;;;;;;5057978;28;20206;-94
2024/02/18 08:25:53;;;;;;;7.05;6.03;;;;;;;;;;5058658;28;20261;-93
2024/02/18 08:28:21;;;;;;;8.23;6.10;;;;;;;;;;5059782;28;20211;-93
2024/02/18 08:30:48;;;;;;;7.68;6.63;;;;;;;;;;5060033;28;20241;-93
2024/02/18 08:33:17;;;;;;;9.23;7.85;;;;;;;;;;5057967;28;20202;-93
2024/02/18 08:35:45;;;;;;;8.00;6.80;;;;;;;;;;5058295;28;20190;-94
2024/02/18 08:38:13;;;;;;;7.47;6.68;;;;;;;;;;5058076;28;20203;-95
2024/02/18 08:40:40;;;;;;;8.75;7.85;;;;;;;;;;5058824;28;20202;-94
2024/02/18 08:43:08;;;;;;;8.88;7.75;;;;;;;;;;5059109;28;20201;-93
2024/02/18 08:45:36;;;;;;;9.32;8.32;;;;;;;;;;5054789;28;20229;-94
2024/02/18 08:48:04;;;;;;;7.97;7.22;;;;;;;;;;5057246;28;20191;-93
2024/02/18 08:50:33;;;;;;;9.02;8.13;;;;;;;;;;5059432;28;20321;-93
2024/02/18 08:53:02;;;;;;;8.25;7.30;;;;;;;;;;5058850;28;20202;-94
2024/02/18 08:55:29;;;;;;;9.50;6.72;;;;;;;;;;5058984;28;20254;-93
2024/02/18 08:57:57;;;;;;;7.78;5.18;;;;;;;;;;5059643;28;20213;-93
2024/02/18 09:00:25;;;;;;;5.78;5.20;;;;;;;;;;5059362;28;20202;-94
2024/02/18 09:02:52;;;;;;;5.97;5.45;;;;;;;;;;5057497;28;20198;-94
2024/02/18 09:05:20;;;;;;;6.78;6.10;;;;;;;;;;5058504;28;20278;-94
2024/02/18 09:07:49;;;;;;;7.47;6.78;;;;;;;;;;5058250;28;20203;-94
2024/02/18 09:10:17;;;;;;;7.95;7.15;;;;;;;;;;5058550;28;20210;-94
2024/02/18 09:12:44;;;;;;;7.95;7.13;;;;;;;;;;5059015;28;20202;-94
2024/02/18 09:15:12;;;;;;;8.90;6.43;;;;;;;;;;5058232;28;20218;-95
2024/02/18 09:17:39;;;;;;;7.72;5.53;;;;;;;;;;5059355;28;20194;-92
2024/02/18 09:20:08;;;;;;;9.10;7.65;;;;;;;;;;5058861;28;20183;-93
2024/02/18 09:22:36;;;;;;;6.53;5.93;;;;;;;;;;5058449;28;20210;-93
2024/02/18 09:25:06;;;;;;;8.45;7.13;;;;;;;;;;5058986;28;20207;-93
2024/02/18 09:27:33;;;;;;;9.35;7.93;;;;;;;;;;5059194;28;20175;-93
2024/02/18 09:30:01;;;;;;;8.55;7.53;;;;;;;;;;5058971;28;20198;-92
2024/02/18 09:32:28;;;;;;;9.43;7.68;;;;;;;;;;5058892;28;20190;-91
2024/02/18 09:34:56;;;;;;;9.85;8.00;;;;;;;;;;5058955;28;20218;-93
2024/02/18 09:37:24;;;;;;;12.35;8.27;;;;;;;;;;5059080;28;20190;-93
2024/02/18 09:39:52;;;;;;;7.47;6.60;;;;;;;;;;5058826;28;20182;-92
2024/02/18 09:42:21;;;;;;;10.10;7.43;;;;;;;;;;5056528;28;20202;-93
2024/02/18 09:44:50;;;;;;;8.85;7.95;;;;;;;;;;5053129;28;20253;-94
2024/02/18 09:47:18;;;;;;;7.65;6.85;;;;;;;;;;5052285;28;20206;-93
2024/02/18 09:49:45;;;;;;;9.88;7.80;;;;;;;;;;5054659;28;20245;-94
2024/02/18 09:52:14;;;;;;;8.57;7.28;;;;;;;;;;5056350;28;20226;-93
2024/02/18 09:54:41;;;;;;;9.68;8.15;;;;;;;;;;5056107;28;20245;-93
2024/02/18 09:57:09;;;;;;;8.65;7.70;;;;;;;;;;5057159;28;20202;-94
2024/02/18 09:59:38;;;;;;;9.60;7.90;;;;;;;;;;5054461;28;20209;-93
2024/02/18 10:02:07;;;;;;;9.13;8.18;;;;;;;;;;5057351;28;20209;-94
2024/02/18 10:04:34;;;;;;;9.68;7.97;;;;;;;;;;5056813;28;20240;-93
2024/02/18 10:07:02;;;;;;;10.65;9.60;;;;;;;;;;5057787;28;20198;-92
2024/02/18 10:09:31;;;;;;;8.95;6.75;;;;;;;;;;5056873;28;20221;-94
2024/02/18 10:11:58;;;;;;;9.50;7.53;;;;;;;;;;5056874;28;20209;-93
2024/02/18 10:14:27;;;;;;;11.07;7.65;;;;;;;;;;5056115;28;20418;-94
2024/02/18 10:16:57;;;;;;;7.30;6.60;;;;;;;;;;5056836;28;20209;-92
2024/02/18 10:19:25;;;;;;;8.55;7.68;;;;;;;;;;5056594;28;20194;-93
2024/02/18 10:21:53;;;;;;;7.97;6.22;;;;;;;;;;5057014;28;20186;-94
2024/02/18 10:24:23;;;;;;;7.70;6.88;;;;;;;;;;5057397;28;20221;-94
2024/02/18 10:26:51;;;;;;;7.88;6.68;;;;;;;;;;5057703;28;20208;-93
2024/02/18 10:29:19;;;;;;;7.75;6.95;;;;;;;;;;5057040;28;20197;-94
2024/02/18 10:31:47;;;;;;;8.75;7.25;;;;;;;;;;5057087;28;20214;-93
2024/02/18 10:34:17;;;;;;;6.95;6.25;;;;;;;;;;5057649;28;20214;-93
2024/02/18 10:36:49;;;;;;;8.73;7.82;;;;;;;;;;5057215;28;20190;-94
2024/02/18 10:39:17;;;;;;;8.45;7.60;;;;;;;;;;5056902;28;20206;-93
2024/02/18 10:41:53;;;;;;;7.53;6.60;;;;;;;;;;5057050;28;20193;-93
2024/02/18 10:44:21;;;;;;;7.80;6.50;;;;;;;;;;5055681;28;20226;-94
2024/02/18 10:46:51;;;;;;;7.70;6.55;;;;;;;;;;5056275;28;20209;-93
2024/02/18 10:49:25;;;;;;;9.05;7.45;;;;;;;;;;5057613;28;20190;-93
2024/02/18 10:52:05;;;;;;;7.93;7.13;;;;;;;;;;5056860;28;20248;-94
2024/02/18 10:54:41;;;;;;;8.10;7.20;;;;;;;;;;5054857;28;20238;-94
2024/02/18 10:57:09;;;;;;;12.25;8.93;;;;;;;;;;5055978;28;20270;-94
2024/02/18 10:59:44;;;;;;;10.45;7.45;;;;;;;;;;5056276;28;20206;-94
2024/02/18 11:02:16;;;;;;;8.73;7.85;;;;;;;;;;5056547;28;20202;-95
2024/02/18 11:04:46;;;;;;;8.43;7.50;;;;;;;;;;5057015;28;20202;-94
2024/02/18 11:07:14;;;;;;;8.52;7.07;;;;;;;;;;5056994;28;20190;-94
2024/02/18 11:09:43;;;;;;;7.80;7.00;;;;;;;;;;5056439;28;20186;-93
2024/02/18 11:12:11;;;;;;;8.75;7.78;;;;;;;;;;5057213;28;20210;-94
2024/02/18 11:14:39;;;;;;;9.35;7.63;;;;;;;;;;5057338;28;20202;-93
2024/02/18 11:17:06;;;;;;;7.80;7.00;;;;;;;;;;5056893;28;20187;-94
2024/02/18 11:19:34;;;;;;;8.50;6.20;;;;;;;;;;5056550;28;20198;-96
2024/02/18 11:22:04;;;;;;;7.57;6.22;;;;;;;;;;5056326;28;20202;-94
2024/02/18 11:24:32;;;;;;;7.55;6.68;;;;;;;;;;5056925;28;20222;-94
2024/02/18 11:26:59;;;;;;;8.82;6.65;;;;;;;;;;5060791;28;20209;-93
2024/02/18 11:29:27;;;;;;;9.13;7.15;;;;;;;;;;5059455;28;20199;-94
2024/02/18 11:31:55;;;;;;;7.38;6.35;;;;;;;;;;5056377;28;20229;-93
2024/02/18 11:34:23;;;;;;;7.13;6.25;;;;;;;;;;5059634;28;20229;-94
2024/02/18 11:36:50;;;;;;;7.35;6.32;;;;;;;;;;5059770;28;20199;-95
2024/02/18 11:39:19;;;;;;;6.60;6.00;;;;;;;;;;5058958;28;20190;-94
2024/02/18 11:41:48;;;;;;;6.30;5.70;;;;;;;;;;5057050;28;20206;-94
2024/02/18 11:44:16;;;;;;;7.25;5.95;;;;;;;;;;5054035;28;20228;-92
2024/02/18 11:46:46;;;;;;;7.97;6.55;;;;;;;;;;5051325;28;20541;-94
2024/02/18 11:49:13;;;;;;;8.35;6.25;;;;;;;;;;5054460;28;20210;-94
2024/02/18 11:51:42;;;;;;;6.38;5.47;;;;;;;;;;5058465;28;20280;-93
2024/02/18 11:54:09;;;;;;;6.35;5.70;;;;;;;;;;5058751;28;20226;-94
2024/02/18 11:56:39;;;;;;;6.18;5.57;;;;;;;;;;5057132;28;20203;-95
2024/02/18 11:59:07;;;;;;;5.10;4.60;;;;;;;;;;5058363;28;20277;-94
2024/02/18 12:01:36;;;;;;;6.75;5.47;;;;;;;;;;5053520;28;20206;-93
2024/02/18 12:04:04;;;;;;;6.38;5.68;;;;;;;;;;5055367;28;20222;-94
2024/02/18 12:06:32;;;;;;;6.13;5.60;;;;;;;;;;5051878;28;20222;-95
2024/02/18 12:09:04;;;;;;;9.57;6.25;;;;;;;;;;5054091;28;20190;-94
2024/02/18 12:11:31;;;;;;;6.85;5.85;;;;;;;;;;5053783;28;20226;-93
2024/02/18 12:14:00;;;;;;;7.35;6.13;;;;;;;;;;5053000;28;20229;-94
2024/02/18 12:16:28;;;;;;;7.07;6.35;;;;;;;;;;5048471;28;20238;-93
2024/02/18 12:18:56;;;;;;;6.20;5.60;;;;;;;;;;5052986;28;20202;-93
2024/02/18 12:21:23;;;;;;;5.25;4.70;;;;;;;;;;5050269;28;20269;-94
2024/02/18 12:23:51;;;;;;;5.43;4.93;;;;;;;;;;5050291;28;20649;-93
2024/02/18 12:26:20;;;;;;;5.13;4.40;;;;;;;;;;5054968;28;20211;-93
2024/02/18 12:28:48;;;;;;;7.80;5.50;;;;;;;;;;5054563;28;20190;-93
2024/02/18 12:31:18;;;;;;;5.15;4.57;;;;;;;;;;5059376;28;20222;-93
2024/02/18 12:33:46;;;;;;;4.82;4.28;;;;;;;;;;5052614;28;20589;-94
2024/02/18 12:36:13;;;;;;;4.63;4.22;;;;;;;;;;5049380;28;20221;-94
2024/02/18 12:38:41;;;;;;;3.95;3.55;;;;;;;;;;5052606;28;20213;-93
2024/02/18 12:41:09;;;;;;;5.35;4.65;;;;;;;;;;5049834;28;20229;-94
2024/02/18 12:43:37;;;;;;;4.85;4.38;;;;;;;;;;5050127;28;20226;-93
2024/02/18 12:46:07;;;;;;;4.75;3.90;;;;;;;;;;5047275;28;20218;-94
2024/02/18 12:48:35;;;;;;;4.53;4.07;;;;;;;;;;5047652;28;20221;-94
2024/02/18 12:51:11;;;;;;;4.80;4.18;;;;;;;;;;5051880;28;20198;-94
2024/02/18 12:53:39;;;;;;;4.30;3.90;;;;;;;;;;5053468;28;20221;-94
2024/02/18 12:56:10;;;;;;;4.53;4.13;;;;;;;;;;5050840;28;20218;-93
2024/02/18 12:58:37;;;;;;;5.68;4.13;;;;;;;;;;5057636;28;20273;-93
2024/02/18 13:01:05;;;;;;;3.92;3.53;;;;;;;;;;5059408;28;20190;-93
2024/02/18 13:03:35;;;;;;;3.75;3.33;;;;;;;;;;5059483;28;20194;-92
2024/02/18 13:06:04;;;;;;;4.10;3.70;;;;;;;;;;5059617;28;20202;-92
2024/02/18 13:08:33;;;;;;;3.38;3.05;;;;;;;;;;5059621;28;20186;-94
2024/02/18 13:11:01;;;;;;;3.88;3.20;;;;;;;;;;5059321;28;20186;-95
2024/02/18 13:13:29;;;;;;;3.53;3.22;;;;;;;;;;5059320;28;20194;-92
2024/02/18 13:15:56;;;;;;;3.15;2.63;;;;;;;;;;5055813;28;20684;-94
2024/02/18 13:18:24;;;;;;;3.65;3.33;;;;;;;;;;5054052;28;20210;-94
2024/02/18 13:20:53;;;;;;;4.18;3.05;;;;;;;;;;5054629;28;20290;-94
2024/02/18 13:23:21;;;;;;;3.50;3.20;;;;;;;;;;5055633;28;20245;-93
2024/02/18 13:25:48;;;;;;;3.63;3.00;;;;;;;;;;5052675;28;20190;-94
2024/02/18 13:28:16;;;;;;;2.90;2.65;;;;;;;;;;5054799;28;20209;-93
2024/02/18 13:30:45;;;;;;;2.65;2.45;;;;;;;;;;5054217;28;20217;-94
2024/02/18 13:33:12;;;;;;;3.72;3.40;;;;;;;;;;5050481;28;20226;-94
2024/02/18 13:35:40;;;;;;;3.17;2.83;;;;;;;;;;5051929;28;20226;-94
2024/02/18 13:38:10;;;;;;;3.08;2.80;;;;;;;;;;5053055;28;20206;-94
2024/02/18 13:40:37;;;;;;;4.28;3.17;;;;;;;;;;5056821;28;20290;-93
2024/02/18 13:43:05;;;;;;;4.90;3.45;;;;;;;;;;5053338;28;20202;-93
2024/02/18 13:45:33;;;;;;;3.10;2.90;;;;;;;;;;5049103;28;20242;-94
2024/02/18 13:48:01;;;;;;;3.83;3.45;;;;;;;;;;5051470;28;20659;-94
2024/02/18 13:50:29;;;;;;;6.40;3.85;;;;;;;;;;5057171;28;20210;-94
2024/02/18 13:52:58;;;;;;;3.85;3.35;;;;;;;;;;5057054;28;20226;-93
2024/02/18 13:55:27;;;;;;;3.50;3.22;;;;;;;;;;5129005;22;20269;-89
2024/02/18 13:57:57;;;;;;;4.38;3.47;;;;;;;;;;5033902;28;20289;-88
2024/02/18 14:00:24;;;;;;;3.50;3.20;;;;;;;;;;5033637;28;20202;-90
2024/02/18 14:02:52;;;;;;;3.45;3.15;;;;;;;;;;5033124;28;20583;-90
2024/02/18 14:05:20;;;;;;;3.70;3.40;;;;;;;;;;5033177;28;20305;-89
2024/02/18 14:07:47;;;;;;;4.47;3.88;;;;;;;;;;5032937;28;20294;-89
2024/02/18 14:10:19;;;;;;;3.42;3.13;;;;;;;;;;5033127;28;20200;-90
2024/02/18 14:12:48;;;;;;;3.60;3.30;;;;;;;;;;5032950;28;20230;-89
2024/02/18 14:15:16;;;;;;;3.70;3.40;;;;;;;;;;5033007;28;20214;-89
2024/02/18 14:17:44;;;;;;;5.15;3.40;;;;;;;;;;5033228;28;20199;-89
2024/02/18 14:20:12;;;;;;;4.05;3.67;;;;;;;;;;5032791;28;20195;-89
2024/02/18 14:22:40;;;;;;;4.13;3.70;;;;;;;;;;5032468;28;20206;-90
2024/02/18 14:25:09;;;;;;;4.10;3.70;;;;;;;;;;5036629;28;20219;-90
2024/02/18 14:27:37;;;;;;;5.65;4.10;;;;;;;;;;5037297;28;20273;-90
2024/02/18 14:30:08;;;;;;;4.10;3.70;;;;;;;;;;5032941;28;20281;-90
2024/02/18 14:32:36;;;;;;;4.70;3.72;;;;;;;;;;5032590;28;20232;-90
2024/02/18 14:35:05;;;;;;;3.72;3.42;;;;;;;;;;5032540;28;20759;-89
2024/02/18 14:37:33;;;;;;;4.38;3.17;;;;;;;;;;5032608;28;20210;-91
2024/02/18 14:40:01;;;;;;;3.95;3.55;;;;;;;;;;5032672;28;20225;-89
2024/02/18 14:42:28;;;;;;;6.55;3.53;;;;;;;;;;5032218;28;20293;-90
2024/02/18 14:44:57;;;;;;;4.78;3.75;;;;;;;;;;5034905;28;20262;-90
2024/02/18 14:47:26;;;;;;;6.22;4.40;;;;;;;;;;5033148;28;20201;-90
2024/02/18 14:49:53;;;;;;;4.53;4.13;;;;;;;;;;5033049;28;20630;-90